KSPA/SPA METAR and TAF weather

Enter ICAO airport designator
Station Type Date Time Source
KSPA METAR 2021/04/13 21:55 UTC NOAA

KSPA 132155Z AUTO 13003KT 10SM CLR 26/06 A3004 RMK AO2


Station Type Date Time Source
KSPA Decoded METAR 2021/04/13 21:55 UTC NOAA

Spartanburg Memorial, SC, United States (KSPA) 34-55N 081-57W
Apr 13, 2021 - 05:55 PM EDT / 2021.04.13 2155 UTC
Wind: from the SE (130 degrees) at 3 MPH (3 KT):0
Visibility: 10 mile(s):0
Sky conditions: clear
Temperature: 78 F (26 C)
Dew Point: 42 F (6 C)
Relative Humidity: 27%
Pressure (altimeter): 30.04 in. Hg (1017 hPa)
ob: KSPA 132155Z AUTO 13003KT 10SM CLR 26/06 A3004 RMK AO2
cycle: 22

Station Type Date Time Source
KSPA TAF UTC NOAA

Error!

Example: see airport list